Time;durP1;ratioP1;P1;durP2;ratioP2;P2;SDS_P1;SDS_P2;PMS_P1;PMS_P2;Temp;Humidity;BMP_temperature;BMP_pressure;BME280_temperature;BME280_humidity;BME280_pressure;Samples;Min_cycle;Max_cycle;Signal;HPM_P1;HPM_P2
2022/10/04 00:01:49;;;;;;;9.40;3.17;;;15.50;99.90;;;;;;5060621;28;20456;-81
2022/10/04 00:04:20;;;;;;;9.90;6.07;;;15.50;99.90;;;;;;5059689;28;20950;-79
2022/10/04 00:06:52;;;;;;;5.57;3.37;;;15.50;99.90;;;;;;5057163;28;20474;-79
2022/10/04 00:09:23;;;;;;;8.80;3.60;;;15.50;99.90;;;;;;5094942;28;20448;-79
2022/10/04 00:11:52;;;;;;;7.17;3.00;;;15.50;99.90;;;;;;5116877;28;20961;-78
2022/10/04 00:14:30;;;;;;;8.50;2.30;;;15.50;99.90;;;;;;5114449;28;20770;-80
2022/10/04 00:16:59;;;;;;;3.50;1.87;;;15.50;99.90;;;;;;5093187;28;20458;-80
2022/10/04 00:19:42;;;;;;;5.83;2.47;;;15.50;99.90;;;;;;5105917;28;20464;-79
2022/10/04 00:22:13;;;;;;;7.63;2.60;;;15.50;99.90;;;;;;5116369;28;20460;-78
2022/10/04 00:25:20;;;;;;;6.80;2.27;;;15.50;99.90;;;;;;5108837;28;20800;-79
2022/10/04 00:28:24;;;;;;;5.37;2.00;;;15.50;99.90;;;;;;5101879;28;20477;-79
2022/10/04 00:31:21;;;;;;;7.60;2.80;;;15.50;99.90;;;;;;5102443;28;20471;-81
2022/10/04 00:33:59;;;;;;;5.37;2.97;;;15.50;99.90;;;;;;5094401;28;20967;-80
2022/10/04 00:36:52;;;;;;;7.27;2.87;;;15.50;99.90;;;;;;5105981;28;20479;-79
2022/10/04 00:43:12;;;;;;;5.00;2.30;;;15.50;99.90;;;;;;5060542;28;20490;-79
2022/10/04 00:45:56;;;;;;;10.93;3.33;;;15.50;99.90;;;;;;5102750;28;20902;-81
2022/10/04 00:48:51;;;;;;;5.20;2.30;;;15.50;99.90;;;;;;5089484;28;20473;-81
2022/10/04 00:51:34;;;;;;;12.40;3.13;;;15.50;99.90;;;;;;5076365;28;20510;-79
2022/10/04 00:54:14;;;;;;;8.90;3.83;;;15.50;99.90;;;;;;5107067;28;20503;-81
2022/10/04 00:57:09;;;;;;;7.53;2.13;;;15.40;99.90;;;;;;5103943;28;20533;-81
2022/10/04 00:59:39;;;;;;;6.60;3.10;;;15.50;99.90;;;;;;5095323;28;20473;-80
2022/10/04 01:02:17;;;;;;;4.47;3.20;;;15.50;99.90;;;;;;5108549;28;21002;-81
2022/10/04 01:05:11;;;;;;;6.27;2.00;;;15.50;99.90;;;;;;5107371;28;20864;-81
2022/10/04 01:07:42;;;;;;;20.83;4.23;;;15.50;99.90;;;;;;5078826;28;20461;-79
2022/10/04 01:10:18;;;;;;;9.03;3.50;;;15.50;99.90;;;;;;5108670;28;20487;-78
2022/10/04 01:12:53;;;;;;;6.33;2.63;;;15.50;99.90;;;;;;5106830;28;20490;-81
2022/10/04 01:15:29;;;;;;;6.03;2.43;;;15.50;99.90;;;;;;5102981;28;20886;-79
2022/10/04 01:18:14;;;;;;;2.57;1.90;;;15.50;99.90;;;;;;5113340;28;20485;-81
2022/10/04 01:20:53;;;;;;;6.50;1.90;;;15.50;99.90;;;;;;5113693;28;20803;-80
2022/10/04 01:23:45;;;;;;;6.00;2.43;;;15.50;99.90;;;;;;5101990;28;20536;-81
2022/10/04 01:26:36;;;;;;;10.73;2.67;;;15.50;99.90;;;;;;5102802;28;20470;-79
2022/10/04 01:29:08;;;;;;;2.77;2.57;;;15.40;99.90;;;;;;5104520;28;20464;-81
2022/10/04 01:31:37;;;;;;;6.30;2.77;;;15.40;99.90;;;;;;5101275;28;20480;-80
2022/10/04 01:34:09;;;;;;;15.70;3.33;;;15.40;99.90;;;;;;5105482;28;20527;-80
2022/10/04 01:36:37;;;;;;;9.47;2.37;;;15.40;99.90;;;;;;5096301;28;20841;-81
2022/10/04 01:39:06;;;;;;;4.53;1.80;;;15.40;99.90;;;;;;5095476;28;20946;-81
2022/10/04 01:41:43;;;;;;;7.40;2.53;;;15.40;99.90;;;;;;5100339;28;20468;-80
2022/10/04 01:44:18;;;;;;;5.37;2.47;;;15.30;99.90;;;;;;5112787;28;20468;-79
2022/10/04 01:46:47;;;;;;;5.27;2.00;;;15.40;99.90;;;;;;5114203;28;20928;-80
2022/10/04 01:49:19;;;;;;;5.20;2.20;;;15.30;99.90;;;;;;5113897;28;20461;-80
2022/10/04 01:51:55;;;;;;;8.07;3.20;;;15.30;99.90;;;;;;5113277;28;20478;-79
2022/10/04 01:54:33;;;;;;;6.20;2.17;;;15.30;99.90;;;;;;5115081;28;20480;-79
2022/10/04 01:57:07;;;;;;;9.83;3.30;;;15.30;99.90;;;;;;5115125;28;20467;-79
2022/10/04 01:59:43;;;;;;;5.80;2.60;;;15.30;99.90;;;;;;5114747;28;20551;-80
2022/10/04 02:02:19;;;;;;;6.30;2.87;;;15.30;99.90;;;;;;5115228;28;20538;-81
2022/10/04 02:04:53;;;;;;;5.63;2.93;;;15.30;99.90;;;;;;5114988;28;20456;-81
2022/10/04 02:07:21;;;;;;;4.60;2.83;;;15.30;99.90;;;;;;5115307;28;20468;-79
2022/10/04 02:09:58;;;;;;;5.73;2.33;;;15.30;99.90;;;;;;5114509;28;20457;-79
2022/10/04 02:12:27;;;;;;;3.87;2.10;;;15.30;99.90;;;;;;5114471;28;20468;-80
2022/10/04 02:15:00;;;;;;;4.63;2.03;;;15.30;99.90;;;;;;5115009;28;20545;-81
2022/10/04 02:17:32;;;;;;;4.43;2.73;;;15.30;99.90;;;;;;5114370;28;20486;-81
2022/10/04 02:20:01;;;;;;;4.37;2.90;;;15.30;99.90;;;;;;5114778;28;20979;-79
2022/10/04 02:22:29;;;;;;;5.80;2.20;;;15.30;99.90;;;;;;5114014;28;20476;-81
2022/10/04 02:24:58;;;;;;;6.70;2.33;;;15.20;99.90;;;;;;5114512;28;20504;-82
2022/10/04 02:27:28;;;;;;;4.47;2.57;;;15.20;99.90;;;;;;5113675;28;20496;-81
2022/10/04 02:30:01;;;;;;;5.23;3.00;;;15.20;99.90;;;;;;5114506;28;20465;-81
2022/10/04 02:35:17;;;;;;;6.30;2.20;;;15.20;99.90;;;;;;5114386;28;20579;-81
2022/10/04 02:37:45;;;;;;;7.50;3.00;;;15.20;99.90;;;;;;5113418;28;20476;-80
2022/10/04 02:40:17;;;;;;;4.70;2.00;;;15.20;99.90;;;;;;5113214;28;20472;-81
2022/10/04 02:42:49;;;;;;;3.83;1.70;;;15.20;99.90;;;;;;5113085;28;20533;-80
2022/10/04 02:45:21;;;;;;;8.43;2.67;;;15.20;99.90;;;;;;5113983;28;20469;-80
2022/10/04 02:47:53;;;;;;;5.40;2.73;;;15.10;99.90;;;;;;5113434;28;20460;-80
2022/10/04 02:50:29;;;;;;;4.03;2.00;;;15.10;99.90;;;;;;5114034;28;20472;-81
2022/10/04 02:53:00;;;;;;;3.23;1.53;;;15.10;99.90;;;;;;5113875;28;20543;-82
2022/10/04 02:55:34;;;;;;;4.27;1.80;;;15.20;99.90;;;;;;5113646;28;20544;-79
2022/10/04 02:58:02;;;;;;;4.10;2.33;;;15.10;99.90;;;;;;5114321;28;20455;-80
2022/10/04 03:00:31;;;;;;;2.60;2.13;;;15.10;99.90;;;;;;5113843;28;20475;-81
2022/10/04 03:03:24;;;;;;;3.63;1.87;;;15.20;99.90;;;;;;5113437;28;20465;-80
2022/10/04 03:06:06;;;;;;;9.37;2.13;;;15.20;99.90;;;;;;5086093;28;20476;-81
2022/10/04 03:08:36;;;;;;;7.43;2.20;;;15.20;99.90;;;;;;5113466;28;20567;-79
2022/10/04 03:11:05;;;;;;;7.07;2.43;;;15.20;99.90;;;;;;5113166;28;20523;-79
2022/10/04 03:13:36;;;;;;;4.50;1.73;;;15.10;99.90;;;;;;5114350;28;20468;-79
2022/10/04 03:16:03;;;;;;;4.00;2.10;;;15.10;99.90;;;;;;5113343;28;20460;-80
2022/10/04 03:18:31;;;;;;;4.00;2.60;;;15.10;99.90;;;;;;5114194;28;20464;-80
2022/10/04 03:21:02;;;;;;;4.83;2.37;;;15.10;99.90;;;;;;5113537;28;20468;-80
2022/10/04 03:23:32;;;;;;;8.30;2.60;;;15.10;99.90;;;;;;5113617;28;20473;-79
2022/10/04 03:26:03;;;;;;;2.93;2.23;;;15.10;99.90;;;;;;5113166;28;20461;-81
2022/10/04 03:28:32;;;;;;;3.57;2.10;;;15.10;99.90;;;;;;5113712;28;20781;-80
2022/10/04 03:30:59;;;;;;;8.77;2.47;;;15.00;99.90;;;;;;5113274;28;20462;-79
2022/10/04 03:33:29;;;;;;;3.03;2.50;;;15.00;99.90;;;;;;5113700;28;20494;-79
2022/10/04 03:36:00;;;;;;;6.70;2.27;;;14.90;99.90;;;;;;5113688;28;20961;-79
2022/10/04 03:38:28;;;;;;;5.20;2.47;;;14.90;99.90;;;;;;5113854;28;20468;-80
2022/10/04 03:40:58;;;;;;;3.97;2.17;;;14.90;99.90;;;;;;5112850;28;20969;-80
2022/10/04 03:43:33;;;;;;;5.67;2.40;;;14.90;99.90;;;;;;5113108;28;20545;-81
2022/10/04 03:46:01;;;;;;;3.37;2.30;;;14.80;99.90;;;;;;5113132;28;21022;-82
2022/10/04 03:48:35;;;;;;;6.97;1.87;;;14.80;99.90;;;;;;5112988;28;20467;-81
2022/10/04 03:51:05;;;;;;;8.20;2.03;;;14.80;99.90;;;;;;5114136;28;20468;-81
2022/10/04 03:53:36;;;;;;;10.50;2.50;;;14.80;99.90;;;;;;5117485;28;20476;-81
2022/10/04 03:56:09;;;;;;;7.37;2.90;;;14.70;99.90;;;;;;5116632;28;20492;-80
2022/10/04 03:58:38;;;;;;;5.13;2.20;;;14.70;99.90;;;;;;5117123;28;20473;-82
2022/10/04 04:01:14;;;;;;;5.40;2.60;;;14.70;99.90;;;;;;5117229;28;20468;-82
2022/10/04 04:03:56;;;;;;;6.23;2.50;;;14.70;99.90;;;;;;5118084;28;20567;-81
2022/10/04 04:06:25;;;;;;;6.97;2.17;;;14.60;99.90;;;;;;5119130;28;20529;-79
2022/10/04 04:08:54;;;;;;;6.17;2.90;;;14.70;99.90;;;;;;5117655;28;20471;-81
2022/10/04 04:11:25;;;;;;;4.50;2.77;;;14.60;99.90;;;;;;5119435;28;20468;-81
2022/10/04 04:13:59;;;;;;;4.80;3.13;;;14.60;99.90;;;;;;5117786;28;20922;-81
2022/10/04 04:16:27;;;;;;;7.97;2.67;;;14.60;99.90;;;;;;5096488;28;20476;-80
2022/10/04 04:18:59;;;;;;;10.60;3.77;;;14.60;99.90;;;;;;5107750;28;20529;-81
2022/10/04 04:21:28;;;;;;;8.13;2.87;;;14.60;99.90;;;;;;5117164;28;20471;-79
2022/10/04 04:23:59;;;;;;;7.70;3.10;;;14.50;99.90;;;;;;5104603;28;20468;-80
2022/10/04 04:26:38;;;;;;;7.30;3.33;;;14.50;99.90;;;;;;5117773;28;20550;-82
2022/10/04 04:29:13;;;;;;;8.47;2.67;;;14.50;99.90;;;;;;5116818;28;20475;-78
2022/10/04 04:31:45;;;;;;;5.10;3.15;;;14.50;99.90;;;;;;5117617;28;20463;-79
2022/10/04 04:34:21;;;;;;;9.90;2.80;;;14.50;99.90;;;;;;5116717;28;20280;-80
2022/10/04 04:36:49;;;;;;;3.37;2.20;;;14.40;99.90;;;;;;5118978;28;20459;-80
2022/10/04 04:42:11;;;;;;;7.63;2.67;;;14.40;99.90;;;;;;5120845;28;20847;-79
2022/10/04 04:44:48;;;;;;;5.53;2.40;;;14.40;99.90;;;;;;5125238;28;20471;-80
2022/10/04 04:47:27;;;;;;;7.07;2.83;;;14.30;99.90;;;;;;5117780;28;20532;-79
2022/10/04 04:49:56;;;;;;;8.57;2.70;;;14.30;99.90;;;;;;5132459;28;20460;-80
2022/10/04 04:52:28;;;;;;;5.50;2.67;;;14.30;99.90;;;;;;5132328;28;20486;-80
2022/10/04 04:54:56;;;;;;;5.23;3.13;;;14.30;99.90;;;;;;5134319;28;20471;-79
2022/10/04 04:57:23;;;;;;;8.40;3.17;;;14.30;99.90;;;;;;5134590;28;20449;-81
2022/10/04 04:59:55;;;;;;;4.18;3.03;;;14.30;99.90;;;;;;5134307;28;20460;-80
2022/10/04 05:02:36;;;;;;;4.50;2.37;;;14.30;99.90;;;;;;5131033;28;20230;-79
2022/10/04 05:05:25;;;;;;;6.87;2.50;;;14.30;99.90;;;;;;5131799;28;20461;-80
2022/10/04 05:08:17;;;;;;;5.53;2.40;;;14.20;99.90;;;;;;5128661;28;20468;-79
2022/10/04 05:10:48;;;;;;;2.95;2.63;;;14.20;99.90;;;;;;5123139;28;20526;-80
2022/10/04 05:13:18;;;;;;;4.85;2.47;;;14.20;99.90;;;;;;5121975;28;20222;-80
2022/10/04 05:15:50;;;;;;;6.23;2.57;;;14.20;99.90;;;;;;5121794;28;20218;-81
2022/10/04 05:18:33;;;;;;;4.07;2.20;;;14.20;99.90;;;;;;5121927;28;20478;-81
2022/10/04 05:21:05;;;;;;;7.15;2.25;;;14.20;99.90;;;;;;5118035;28;20495;-81
2022/10/04 05:23:33;;;;;;;8.37;3.50;;;14.20;99.90;;;;;;5118749;28;20222;-80
2022/10/04 05:26:03;;;;;;;3.97;3.10;;;14.20;99.90;;;;;;5118029;28;20468;-81
2022/10/04 05:28:31;;;;;;;9.40;5.13;;;14.20;99.90;;;;;;5117907;28;20460;-81
2022/10/04 05:31:27;;;;;;;13.37;3.83;;;14.20;99.90;;;;;;5115833;28;20545;-80
2022/10/04 05:34:00;;;;;;;5.83;3.30;;;14.30;99.90;;;;;;5113023;28;20562;-81
2022/10/04 05:36:49;;;;;;;9.85;3.55;;;14.30;99.90;;;;;;5106261;28;20969;-81
2022/10/04 05:39:24;;;;;;;12.83;4.17;;;14.30;99.90;;;;;;5116624;28;20541;-80
2022/10/04 05:42:02;;;;;;;6.20;4.60;;;14.40;99.90;;;;;;5115805;28;20573;-80
2022/10/04 05:44:35;;;;;;;9.03;3.63;;;14.40;99.90;;;;;;5117581;28;20254;-81
2022/10/04 05:47:07;;;;;;;8.50;3.37;;;14.40;99.90;;;;;;5115092;28;20836;-80
2022/10/04 05:49:42;;;;;;;5.43;3.70;;;14.50;99.90;;;;;;5115350;28;20472;-81
2022/10/04 05:52:15;;;;;;;7.47;2.67;;;14.50;99.90;;;;;;5086055;28;20468;-79
2022/10/04 05:54:50;;;;;;;5.13;3.40;;;14.60;99.90;;;;;;5114772;28;20476;-82
2022/10/04 05:57:40;;;;;;;11.47;5.37;;;14.60;99.90;;;;;;5114572;28;20456;-80
2022/10/04 06:00:16;;;;;;;8.90;5.37;;;14.60;99.90;;;;;;5115248;28;20525;-80
2022/10/04 06:03:14;;;;;;;7.03;4.57;;;14.70;99.90;;;;;;5114357;28;20472;-80
2022/10/04 06:05:51;;;;;;;15.67;5.10;;;14.80;99.90;;;;;;5105948;28;20484;-79
2022/10/04 06:08:33;;;;;;;8.13;5.50;;;14.90;99.90;;;;;;5098586;28;20860;-80
2022/10/04 06:11:09;;;;;;;7.53;3.90;;;14.90;99.90;;;;;;5115629;28;20985;-80
2022/10/04 06:14:15;;;;;;;10.00;3.43;;;15.00;99.90;;;;;;5114739;28;20529;-79
2022/10/04 06:16:58;;;;;;;8.17;4.03;;;15.00;99.90;;;;;;5014086;28;20504;-81
2022/10/04 06:19:58;;;;;;;6.83;3.73;;;15.00;99.90;;;;;;5103366;28;20830;-81
2022/10/04 06:22:26;;;;;;;6.80;4.73;;;15.10;99.90;;;;;;5114849;28;20859;-81
2022/10/04 06:25:04;;;;;;;6.57;3.80;;;15.10;99.90;;;;;;5114862;28;20456;-81
2022/10/04 06:27:40;;;;;;;5.00;3.40;;;15.10;99.90;;;;;;5113923;28;20512;-81
2022/10/04 06:30:13;;;;;;;10.00;3.60;;;15.10;99.90;;;;;;5114981;28;20491;-81
2022/10/04 06:33:38;;;;;;;6.63;3.23;;;15.10;99.90;;;;;;5114208;28;20480;-81
2022/10/04 06:36:41;;;;;;;7.97;4.30;;;15.20;99.90;;;;;;5114274;28;20957;-79
2022/10/04 06:39:26;;;;;;;4.13;2.70;;;15.20;99.90;;;;;;5071302;28;20543;-81
2022/10/04 06:42:18;;;;;;;6.43;2.93;;;15.20;99.90;;;;;;5102323;28;20555;-81
2022/10/04 06:45:05;;;;;;;4.97;3.07;;;15.30;99.90;;;;;;5114803;28;20481;-81
2022/10/04 06:47:53;;;;;;;4.77;2.57;;;15.30;99.90;;;;;;5113785;28;20461;-81
2022/10/04 06:50:28;;;;;;;7.57;2.80;;;15.30;99.90;;;;;;5116523;28;20491;-81
2022/10/04 06:53:35;;;;;;;10.53;2.97;;;15.30;99.90;;;;;;5113884;28;20845;-82
2022/10/04 06:56:30;;;;;;;3.50;2.33;;;15.30;99.90;;;;;;5113930;28;20462;-80
2022/10/04 06:59:29;;;;;;;4.13;2.30;;;15.30;99.90;;;;;;5113546;28;20964;-80
2022/10/04 07:02:00;;;;;;;4.80;2.50;;;15.40;99.90;;;;;;5106953;28;20479;-78
2022/10/04 07:04:36;;;;;;;5.47;2.40;;;15.40;99.90;;;;;;5114693;28;20464;-78
2022/10/04 07:07:35;;;;;;;4.60;3.27;;;15.40;99.90;;;;;;5117513;28;20986;-80
2022/10/04 07:10:18;;;;;;;7.20;2.53;;;15.40;99.90;;;;;;5117909;28;20496;-80
2022/10/04 07:12:53;;;;;;;4.40;2.07;;;15.40;99.90;;;;;;5113059;28;20491;-80
2022/10/04 07:15:54;;;;;;;6.10;2.70;;;15.40;99.90;;;;;;5113548;28;20468;-79
2022/10/04 07:18:25;;;;;;;4.63;2.80;;;15.40;99.90;;;;;;5112988;28;20456;-81
2022/10/04 07:21:03;;;;;;;4.20;2.70;;;15.40;99.90;;;;;;5114026;28;20460;-80
2022/10/04 07:23:37;;;;;;;6.77;3.50;;;15.40;99.90;;;;;;5112836;28;20544;-80
2022/10/04 07:26:14;;;;;;;4.10;2.40;;;15.50;99.90;;;;;;5105864;28;20529;-80
2022/10/04 07:31:33;;;;;;;6.30;4.20;;;15.50;99.90;;;;;;5115454;28;20921;-80
2022/10/04 07:34:08;;;;;;;6.13;3.77;;;15.50;99.90;;;;;;5117954;28;20506;-79
2022/10/04 07:36:43;;;;;;;4.50;3.40;;;15.60;99.90;;;;;;5108523;28;20464;-80
2022/10/04 07:39:14;;;;;;;8.03;4.17;;;15.60;99.90;;;;;;5113675;28;20468;-80
2022/10/04 07:41:50;;;;;;;8.10;4.17;;;15.60;99.90;;;;;;5117334;28;20461;-80
2022/10/04 07:44:39;;;;;;;7.93;5.00;;;15.60;99.90;;;;;;5117904;28;20533;-81
2022/10/04 07:47:18;;;;;;;5.10;4.00;;;15.70;99.90;;;;;;5118032;28;20473;-79
2022/10/04 07:49:45;;;;;;;4.43;3.60;;;15.60;99.90;;;;;;5119322;28;20521;-80
2022/10/04 07:52:44;;;;;;;10.10;4.20;;;15.70;99.90;;;;;;5117112;28;20533;-79
2022/10/04 07:55:21;;;;;;;6.90;4.13;;;15.60;99.90;;;;;;5116675;28;20977;-79
2022/10/04 07:58:02;;;;;;;6.13;4.17;;;15.70;99.90;;;;;;5117151;28;20484;-79
2022/10/04 08:00:38;;;;;;;8.40;4.33;;;15.70;99.90;;;;;;5117655;28;20456;-80
2022/10/04 08:03:24;;;;;;;7.60;4.20;;;15.70;99.90;;;;;;5116775;28;20483;-81
2022/10/04 08:05:58;;;;;;;7.30;4.13;;;15.70;99.90;;;;;;5117336;28;20478;-81
2022/10/04 08:08:40;;;;;;;6.20;3.03;;;15.70;99.90;;;;;;5116987;28;20497;-80
2022/10/04 08:11:24;;;;;;;7.87;5.27;;;15.70;99.90;;;;;;5116315;28;20946;-81
2022/10/04 08:14:00;;;;;;;10.53;7.43;;;15.70;99.90;;;;;;5117033;28;20479;-79
2022/10/04 08:16:35;;;;;;;9.40;4.93;;;15.80;99.90;;;;;;5116492;28;20974;-79
2022/10/04 08:19:24;;;;;;;4.73;4.30;;;15.80;99.90;;;;;;5116988;28;20472;-80
2022/10/04 08:22:00;;;;;;;6.77;5.00;;;15.80;99.90;;;;;;5116651;28;20476;-79
2022/10/04 08:24:35;;;;;;;6.90;4.20;;;15.80;99.90;;;;;;5116587;28;21018;-80
2022/10/04 08:27:24;;;;;;;5.37;4.10;;;15.80;99.90;;;;;;5116531;28;20459;-78
2022/10/04 08:30:11;;;;;;;10.07;4.37;;;15.90;99.90;;;;;;5116068;28;20472;-78
2022/10/04 08:32:53;;;;;;;6.17;3.93;;;15.90;99.90;;;;;;5116558;28;20468;-78
2022/10/04 08:35:36;;;;;;;7.53;4.00;;;16.00;99.90;;;;;;5116090;28;20538;-79
2022/10/04 08:38:21;;;;;;;13.90;7.60;;;16.00;99.90;;;;;;5115183;28;20503;-79
2022/10/04 08:41:25;;;;;;;8.23;5.73;;;16.10;99.90;;;;;;5106133;28;20492;-79
2022/10/04 08:44:26;;;;;;;9.00;5.47;;;16.10;99.90;;;;;;5117000;28;20547;-79
2022/10/04 08:47:30;;;;;;;10.70;6.10;;;16.10;99.90;;;;;;5115966;28;20471;-81
2022/10/04 08:50:27;;;;;;;6.30;5.20;;;16.20;99.90;;;;;;5115238;28;20468;-80
2022/10/04 08:53:19;;;;;;;8.10;6.17;;;16.30;99.90;;;;;;5115790;28;20801;-79
2022/10/04 08:56:12;;;;;;;5.77;4.63;;;16.30;99.90;;;;;;5115594;28;20968;-79
2022/10/04 08:59:05;;;;;;;6.27;4.83;;;16.40;99.90;;;;;;5116643;28;20785;-79
2022/10/04 09:01:52;;;;;;;6.57;5.97;;;16.50;99.90;;;;;;5065026;28;20549;-79
2022/10/04 09:04:53;;;;;;;10.17;5.27;;;16.60;99.90;;;;;;5116300;28;20462;-80
2022/10/04 09:07:47;;;;;;;7.07;5.47;;;16.70;99.90;;;;;;5116767;28;20471;-81
2022/10/04 09:10:34;;;;;;;6.50;5.43;;;16.70;99.90;;;;;;5115442;28;20464;-80
2022/10/04 09:13:19;;;;;;;4.80;3.93;;;16.80;99.90;;;;;;5116637;28;20536;-81
2022/10/04 09:15:55;;;;;;;6.07;3.67;;;16.80;99.90;;;;;;5105770;28;20476;-80
2022/10/04 09:18:35;;;;;;;5.93;4.30;;;16.80;99.90;;;;;;5116444;28;20453;-80
2022/10/04 09:21:11;;;;;;;6.00;4.17;;;16.80;99.90;;;;;;5115938;28;20509;-80
2022/10/04 09:24:12;;;;;;;6.83;4.23;;;16.90;99.90;;;;;;5116312;28;20526;-80
2022/10/04 09:26:44;;;;;;;6.77;3.40;;;17.00;99.90;;;;;;5116329;28;20542;-78
2022/10/04 09:29:41;;;;;;;10.27;6.40;;;17.00;99.90;;;;;;5116112;28;20458;-79
2022/10/04 09:32:32;;;;;;;3.90;3.40;;;17.00;99.90;;;;;;5116074;28;20528;-78
2022/10/04 09:35:25;;;;;;;8.03;4.00;;;17.00;99.90;;;;;;5114922;28;20980;-78
2022/10/04 09:38:21;;;;;;;4.00;3.13;;;17.00;99.90;;;;;;5072252;28;20843;-80
2022/10/04 09:41:02;;;;;;;5.50;4.10;;;17.10;99.90;;;;;;5115256;28;20551;-79
2022/10/04 09:44:11;;;;;;;4.50;4.10;;;17.10;99.90;;;;;;5115402;28;20473;-79
2022/10/04 09:46:56;;;;;;;3.67;3.37;;;17.10;99.90;;;;;;5108287;28;20464;-80
2022/10/04 09:49:45;;;;;;;4.73;4.03;;;17.10;99.90;;;;;;5114838;28;20493;-79
2022/10/04 09:52:34;;;;;;;5.50;4.10;;;17.10;99.90;;;;;;5116047;28;20501;-81
2022/10/04 09:55:13;;;;;;;6.53;4.03;;;17.10;99.90;;;;;;5116947;28;20915;-79
2022/10/04 09:57:57;;;;;;;5.20;3.40;;;17.10;99.90;;;;;;5115754;28;20466;-79
2022/10/04 10:00:30;;;;;;;7.43;3.53;;;17.10;99.90;;;;;;5116115;28;20490;-79
2022/10/04 10:03:25;;;;;;;4.97;2.97;;;17.20;99.90;;;;;;5116295;28;20485;-79
2022/10/04 10:06:31;;;;;;;4.63;3.23;;;17.20;99.90;;;;;;5122706;28;20453;-80
2022/10/04 10:13:38;;;;;;;3.67;3.03;;;17.20;99.90;;;;;;5134886;28;20472;-79
2022/10/04 10:18:59;;;;;;;7.27;2.90;;;17.30;99.90;;;;;;5020054;28;20391;-96
2022/10/04 10:22:10;;;;;;;4.23;3.83;;;17.40;99.90;;;;;;5020495;28;20473;-97
2022/10/04 10:31:30;;;;;;;7.87;3.10;;;17.60;99.90;;;;;;5022236;22;20474;-78
2022/10/04 10:34:35;;;;;;;5.67;3.70;;;17.70;99.90;;;;;;5002087;28;20495;-78
2022/10/04 10:37:11;;;;;;;3.27;2.67;;;17.70;99.90;;;;;;4980132;28;20484;-80
2022/10/04 10:39:56;;;;;;;5.43;3.37;;;17.80;99.90;;;;;;4978967;28;20473;-80
2022/10/04 10:42:50;;;;;;;8.73;6.73;;;17.80;99.90;;;;;;4977830;28;20476;-80
2022/10/04 10:45:39;;;;;;;5.33;3.37;;;17.80;99.90;;;;;;4976316;28;20477;-80
2022/10/04 10:48:17;;;;;;;4.43;3.50;;;17.80;99.90;;;;;;4974424;28;20944;-79
2022/10/04 10:51:02;;;;;;;4.33;2.70;;;17.80;99.90;;;;;;4977463;28;20457;-81
2022/10/04 10:54:04;;;;;;;4.80;3.03;;;17.80;99.90;;;;;;4980666;28;20479;-78
2022/10/04 10:56:43;;;;;;;4.57;2.77;;;17.90;99.90;;;;;;4977654;28;20469;-78
2022/10/04 11:00:09;;;;;;;8.60;5.10;;;17.90;99.90;;;;;;4977657;28;20476;-78
2022/10/04 11:03:22;;;;;;;4.77;3.20;;;17.90;99.90;;;;;;4911344;29;20523;-79
2022/10/04 11:06:09;;;;;;;6.30;4.00;;;18.00;99.90;;;;;;5013776;28;20478;-78
2022/10/04 11:09:09;;;;;;;8.07;4.30;;;18.00;99.90;;;;;;5013840;28;21073;-78
2022/10/04 11:12:16;;;;;;;7.73;4.57;;;18.00;99.90;;;;;;5012867;28;20540;-79
2022/10/04 11:15:20;;;;;;;7.90;5.93;;;18.10;99.90;;;;;;5012616;28;20568;-80
2022/10/04 11:18:19;;;;;;;6.37;5.37;;;18.10;99.90;;;;;;4959119;28;20468;-79
2022/10/04 11:21:28;;;;;;;8.93;7.13;;;18.10;99.90;;;;;;4992409;28;20807;-80
2022/10/04 11:27:43;;;;;;;5.70;3.60;;;18.20;99.90;;;;;;4949853;29;20475;-79
2022/10/04 11:30:25;;;;;;;5.63;3.70;;;18.20;99.90;;;;;;4993884;28;21039;-79
2022/10/04 11:33:37;;;;;;;3.30;2.87;;;18.20;99.90;;;;;;5014041;28;20501;-81
2022/10/04 11:36:41;;;;;;;7.73;3.70;;;18.30;99.90;;;;;;4964695;28;20933;-81
2022/10/04 11:39:49;;;;;;;6.03;3.07;;;18.30;99.90;;;;;;4982174;28;20468;-81
2022/10/04 11:42:29;;;;;;;6.27;2.90;;;18.30;99.90;;;;;;4970512;28;20541;-81
2022/10/04 11:45:21;;;;;;;5.20;3.17;;;18.40;99.90;;;;;;4993235;28;20469;-81
2022/10/04 11:48:01;;;;;;;8.50;4.90;;;18.40;99.90;;;;;;4993711;28;20549;-81
2022/10/04 11:50:39;;;;;;;7.07;3.40;;;18.40;99.90;;;;;;4992974;28;20504;-81
2022/10/04 11:53:40;;;;;;;5.17;3.50;;;18.40;99.90;;;;;;4993198;28;20619;-79
2022/10/04 11:56:34;;;;;;;8.83;4.77;;;18.40;99.90;;;;;;4992776;28;20484;-79
2022/10/04 11:59:21;;;;;;;4.93;2.70;;;18.50;99.90;;;;;;4993451;28;20476;-79
2022/10/04 12:02:18;;;;;;;4.30;2.37;;;18.50;99.90;;;;;;4993006;28;20513;-79
2022/10/04 12:05:04;;;;;;;6.53;2.20;;;18.40;99.90;;;;;;4993231;28;20465;-79
2022/10/04 12:07:56;;;;;;;2.73;2.37;;;18.40;99.90;;;;;;4993592;28;20468;-79
2022/10/04 12:10:29;;;;;;;3.83;1.80;;;18.30;99.90;;;;;;4993700;28;20469;-79
2022/10/04 12:13:39;;;;;;;2.57;2.37;;;18.40;99.90;;;;;;4987649;28;20479;-81
2022/10/04 12:16:31;;;;;;;2.60;2.00;;;18.30;99.90;;;;;;5016198;28;20959;-78
2022/10/04 12:19:47;;;;;;;4.17;3.10;;;18.30;99.90;;;;;;5003940;28;20453;-81
2022/10/04 12:23:03;;;;;;;5.43;2.90;;;18.30;99.90;;;;;;5014816;28;20548;-81
2022/10/04 12:25:59;;;;;;;2.97;2.20;;;18.30;99.90;;;;;;4997251;28;20493;-81
2022/10/04 12:28:52;;;;;;;6.60;5.10;;;18.40;99.90;;;;;;4995780;28;20466;-79
2022/10/04 12:31:25;;;;;;;5.30;2.73;;;18.40;99.90;;;;;;4999231;28;20559;-78
2022/10/04 12:34:02;;;;;;;4.50;2.33;;;18.50;99.90;;;;;;5016800;28;20550;-78
2022/10/04 12:36:53;;;;;;;6.60;3.70;;;18.50;99.90;;;;;;5016056;28;20475;-79
2022/10/04 12:39:34;;;;;;;5.17;2.67;;;18.50;99.90;;;;;;5013463;28;20516;-80
2022/10/04 12:42:15;;;;;;;5.00;2.57;;;18.60;99.90;;;;;;5016841;28;20809;-81
2022/10/04 12:44:59;;;;;;;4.57;2.10;;;18.60;99.90;;;;;;5016318;28;20838;-78
2022/10/04 12:48:06;;;;;;;2.33;1.90;;;18.60;99.90;;;;;;5016399;28;20477;-80
2022/10/04 12:50:50;;;;;;;5.37;2.30;;;18.60;99.90;;;;;;4986021;28;20489;-79
2022/10/04 12:53:31;;;;;;;4.27;2.40;;;18.70;99.90;;;;;;4996396;28;20481;-78
2022/10/04 12:56:20;;;;;;;5.23;2.10;;;18.60;99.90;;;;;;4996911;28;20492;-79
2022/10/04 12:59:05;;;;;;;4.70;2.50;;;18.60;99.90;;;;;;4996422;28;20466;-79
2022/10/04 13:01:39;;;;;;;5.20;2.30;;;18.70;99.90;;;;;;4996242;28;20484;-80
2022/10/04 13:04:22;;;;;;;4.40;2.10;;;18.70;99.90;;;;;;4996041;28;20920;-81
2022/10/04 13:07:04;;;;;;;5.73;2.33;;;18.70;99.90;;;;;;4995719;28;20548;-80
2022/10/04 13:09:44;;;;;;;5.63;3.30;;;18.70;99.90;;;;;;4996327;28;20466;-79
2022/10/04 13:12:25;;;;;;;5.43;2.20;;;18.70;99.90;;;;;;4996164;28;20542;-82
2022/10/04 13:15:23;;;;;;;2.63;1.60;;;18.80;99.90;;;;;;4995736;28;20839;-82
2022/10/04 13:17:59;;;;;;;2.33;1.93;;;18.80;99.90;;;;;;4995045;28;20469;-81
2022/10/04 13:20:40;;;;;;;2.57;2.00;;;18.80;99.90;;;;;;4996597;28;20462;-78
2022/10/04 13:23:21;;;;;;;4.10;2.00;;;18.80;99.90;;;;;;5000000;28;21555;-79
2022/10/04 13:26:29;;;;;;;6.43;2.83;;;18.80;99.90;;;;;;5015166;28;20830;-79
2022/10/04 13:29:03;;;;;;;7.20;4.23;;;18.80;99.90;;;;;;5006863;28;20858;-79
2022/10/04 13:31:39;;;;;;;5.80;2.37;;;18.80;99.90;;;;;;5015411;28;20500;-81
2022/10/04 13:34:22;;;;;;;5.70;2.40;;;18.80;99.90;;;;;;5014728;28;20530;-80
2022/10/04 13:37:04;;;;;;;9.10;2.90;;;18.80;99.90;;;;;;5014563;28;20501;-80
2022/10/04 13:40:05;;;;;;;4.63;2.90;;;18.80;99.90;;;;;;5015233;28;20460;-80
2022/10/04 13:42:55;;;;;;;2.70;2.13;;;18.90;99.90;;;;;;5014549;28;20559;-80
2022/10/04 13:45:30;;;;;;;3.70;2.50;;;18.80;99.90;;;;;;5015151;28;20603;-80
2022/10/04 13:48:16;;;;;;;5.97;3.70;;;18.90;99.90;;;;;;5014657;28;20559;-79
2022/10/04 13:50:59;;;;;;;4.40;2.93;;;18.90;99.90;;;;;;5015648;28;20465;-80
2022/10/04 13:56:53;;;;;;;6.53;4.00;;;18.90;99.90;;;;;;5013992;28;20991;-79
2022/10/04 13:59:27;;;;;;;4.43;2.87;;;18.90;99.90;;;;;;5015383;28;20925;-80
2022/10/04 14:02:24;;;;;;;3.97;2.43;;;18.90;99.90;;;;;;5015080;28;20481;-80
2022/10/04 14:05:18;;;;;;;2.70;2.50;;;18.90;99.90;;;;;;5014579;28;20469;-80
2022/10/04 14:07:58;;;;;;;7.17;4.13;;;18.90;99.90;;;;;;4982141;28;20472;-81
2022/10/04 14:10:55;;;;;;;7.70;6.03;;;18.80;99.90;;;;;;5015126;28;20457;-80
2022/10/04 14:13:48;;;;;;;4.57;3.30;;;18.80;99.90;;;;;;5015391;28;20497;-82
2022/10/04 14:16:41;;;;;;;4.40;3.10;;;18.80;99.90;;;;;;5014983;28;20485;-81
2022/10/04 14:19:56;;;;;;;2.87;2.67;;;18.80;99.90;;;;;;4995246;28;20491;-80
2022/10/04 14:23:19;;;;;;;3.00;2.33;;;18.70;99.90;;;;;;5014087;28;20934;-82
2022/10/04 14:26:06;;;;;;;3.07;2.60;;;18.70;99.90;;;;;;4953180;28;20472;-80
2022/10/04 14:29:06;;;;;;;3.43;2.00;;;18.70;99.90;;;;;;4945763;29;20460;-81
2022/10/04 14:32:14;;;;;;;2.83;2.20;;;18.70;99.90;;;;;;5011766;28;20455;-81
2022/10/04 14:34:57;;;;;;;5.50;3.27;;;18.70;99.90;;;;;;5003151;28;20549;-81
2022/10/04 14:37:59;;;;;;;3.67;2.40;;;18.70;99.90;;;;;;5015068;28;21013;-81